createdAt,value
2017-06-15T00:00:12.918Z,340
2017-06-15T00:01:15.293Z,328
2017-06-15T00:02:18.221Z,284
2017-06-15T00:03:20.587Z,308
2017-06-15T00:04:23.172Z,260
2017-06-15T00:05:25.537Z,160
2017-06-15T00:06:27.894Z,180
2017-06-15T00:07:30.853Z,132
2017-06-15T00:08:33.226Z,132
2017-06-15T00:09:35.590Z,84
2017-06-15T00:10:37.951Z,68
2017-06-15T00:11:40.326Z,52
2017-06-15T00:12:43.294Z,44
2017-06-15T00:13:45.655Z,24
2017-06-15T00:14:48.024Z,28
2017-06-15T00:15:50.399Z,24
2017-06-15T00:16:52.785Z,16
2017-06-15T00:17:55.746Z,16
2017-06-15T00:18:58.118Z,12
2017-06-15T00:20:00.474Z,8
2017-06-15T00:21:02.832Z,4
2017-06-15T00:22:05.199Z,4
2017-06-15T00:23:08.167Z,4
2017-06-15T00:24:10.534Z,4
2017-06-15T00:25:12.889Z,0
2017-06-15T00:26:15.254Z,4
2017-06-15T00:27:17.615Z,0
2017-06-15T00:28:20.589Z,0
2017-06-15T00:29:22.963Z,0
2017-06-15T00:30:25.359Z,0
2017-06-15T00:31:27.754Z,0
2017-06-15T00:32:30.122Z,0
2017-06-15T00:33:33.157Z,0
2017-06-15T00:34:35.447Z,0
2017-06-15T00:35:37.825Z,0
2017-06-15T00:36:40.181Z,0
2017-06-15T00:37:42.563Z,0
2017-06-15T00:38:47.446Z,0
2017-06-15T00:39:50.008Z,0
2017-06-15T00:40:52.378Z,0
2017-06-15T00:41:54.750Z,0
2017-06-15T00:42:57.023Z,0
2017-06-15T00:44:00.103Z,0
2017-06-15T00:45:02.684Z,0
2017-06-15T00:46:05.066Z,0
2017-06-15T00:47:07.627Z,0
2017-06-15T00:48:09.985Z,0
2017-06-15T00:49:12.948Z,0
2017-06-15T00:50:15.331Z,0
2017-06-15T00:51:17.692Z,0
2017-06-15T00:52:20.059Z,0
2017-06-15T00:53:22.449Z,0
2017-06-15T00:54:25.506Z,0
2017-06-15T00:55:27.885Z,0
2017-06-15T00:56:30.466Z,0
2017-06-15T00:57:32.845Z,0
2017-06-15T00:58:35.175Z,0
2017-06-15T00:59:38.169Z,0
2017-06-15T01:00:40.560Z,0
2017-06-15T01:01:42.945Z,0
2017-06-15T01:02:45.339Z,0
2017-06-15T01:03:47.735Z,0
2017-06-15T01:04:50.715Z,0
2017-06-15T01:05:53.085Z,0
2017-06-15T01:06:55.464Z,0
2017-06-15T01:07:57.859Z,0
2017-06-15T01:09:00.223Z,0
2017-06-15T01:11:10.585Z,0
2017-06-15T01:12:12.971Z,0
2017-06-15T01:13:15.332Z,0
2017-06-15T01:14:17.922Z,0
2017-06-15T01:15:23.600Z,0
2017-06-15T01:16:26.191Z,0
2017-06-15T01:17:28.551Z,0
2017-06-15T01:18:30.946Z,0
2017-06-15T01:19:33.298Z,0
2017-06-15T01:20:39.539Z,0
2017-06-15T01:21:42.133Z,0
2017-06-15T01:22:45.692Z,0
2017-06-15T01:23:48.059Z,0
2017-06-15T01:24:50.455Z,0
2017-06-15T01:25:56.487Z,0
2017-06-15T01:26:58.849Z,0
2017-06-15T01:28:01.203Z,0
2017-06-15T01:29:03.600Z,0
2017-06-15T01:30:05.991Z,0
2017-06-15T01:32:15.483Z,0
2017-06-15T01:33:17.846Z,0
2017-06-15T01:34:20.226Z,0
2017-06-15T01:35:22.616Z,0
2017-06-15T01:36:27.909Z,0
2017-06-15T01:37:30.270Z,0
2017-06-15T01:38:32.667Z,0
2017-06-15T01:39:35.047Z,0
2017-06-15T01:40:37.421Z,0
2017-06-15T01:41:42.693Z,0
2017-06-15T01:42:45.044Z,0
2017-06-15T01:43:47.414Z,0
2017-06-15T01:44:49.816Z,0
2017-06-15T01:45:52.175Z,0
2017-06-15T01:48:02.877Z,0
2017-06-15T01:49:05.222Z,0
2017-06-15T01:50:07.570Z,0
2017-06-15T01:51:09.928Z,0
2017-06-15T01:52:12.322Z,0
2017-06-15T01:53:17.331Z,0
2017-06-15T01:54:19.705Z,0
2017-06-15T01:55:22.085Z,0
2017-06-15T01:56:24.451Z,0
2017-06-15T01:57:26.805Z,0
2017-06-15T01:58:32.115Z,0
2017-06-15T01:59:34.471Z,0
2017-06-15T02:00:36.830Z,0
2017-06-15T02:01:40.386Z,0
2017-06-15T02:02:42.774Z,0
2017-06-15T02:03:47.487Z,0
2017-06-15T02:04:49.855Z,0
2017-06-15T02:05:52.449Z,0
2017-06-15T02:06:54.807Z,0
2017-06-15T02:07:57.166Z,0
2017-06-15T02:09:02.932Z,0
2017-06-15T02:10:05.308Z,0
2017-06-15T02:11:07.665Z,0
2017-06-15T02:12:10.043Z,0
2017-06-15T02:13:12.412Z,0
2017-06-15T02:14:17.657Z,0
2017-06-15T02:15:20.039Z,0
2017-06-15T02:16:22.391Z,0
2017-06-15T02:17:24.782Z,0
2017-06-15T02:18:27.142Z,0
2017-06-15T02:20:36.963Z,0
2017-06-15T02:21:39.343Z,0
2017-06-15T02:22:41.700Z,0
2017-06-15T02:23:44.057Z,0
2017-06-15T02:24:49.451Z,0
2017-06-15T02:25:51.813Z,0
2017-06-15T02:26:54.184Z,0
2017-06-15T02:27:56.559Z,0
2017-06-15T02:28:58.899Z,0
2017-06-15T02:31:08.098Z,0
2017-06-15T02:32:10.477Z,0
2017-06-15T02:33:13.168Z,0
2017-06-15T02:34:15.818Z,0
2017-06-15T02:35:21.167Z,0
2017-06-15T02:36:23.579Z,0
2017-06-15T02:37:26.007Z,0
2017-06-15T02:38:28.337Z,0
2017-06-15T02:39:30.894Z,0
2017-06-15T02:40:36.534Z,0
2017-06-15T02:41:38.898Z,0
2017-06-15T02:42:41.292Z,0
2017-06-15T02:43:43.659Z,0
2017-06-15T02:44:46.041Z,0
2017-06-15T02:48:00.261Z,0
2017-06-15T02:49:02.627Z,0
2017-06-15T02:50:05.021Z,0
2017-06-15T02:51:07.381Z,0
2017-06-15T02:52:12.928Z,0
2017-06-15T02:53:15.486Z,0
2017-06-15T02:54:17.892Z,0
2017-06-15T02:55:20.250Z,0
2017-06-15T02:56:22.620Z,0
2017-06-15T02:59:37.679Z,0
2017-06-15T03:00:40.044Z,0
2017-06-15T03:01:42.410Z,0
2017-06-15T03:02:48.038Z,0
2017-06-15T03:03:50.414Z,0
2017-06-15T03:04:53.971Z,0
2017-06-15T03:05:56.349Z,0
2017-06-15T03:06:58.940Z,0
2017-06-15T03:08:04.053Z,0
2017-06-15T03:09:06.409Z,0
2017-06-15T03:10:08.786Z,0
2017-06-15T03:11:11.184Z,0
2017-06-15T03:12:13.537Z,0
2017-06-15T03:14:23.458Z,0
2017-06-15T03:15:25.823Z,0
2017-06-15T03:16:28.176Z,0
2017-06-15T03:17:30.555Z,0
2017-06-15T03:18:35.878Z,0
2017-06-15T03:19:38.281Z,0
2017-06-15T03:20:40.604Z,0
2017-06-15T03:21:42.986Z,0
2017-06-15T03:22:45.541Z,0
2017-06-15T03:24:55.643Z,0
2017-06-15T03:25:58.000Z,0
2017-06-15T03:27:00.361Z,0
2017-06-15T03:28:02.721Z,0
2017-06-15T03:29:07.845Z,0
2017-06-15T03:30:10.199Z,0
2017-06-15T03:31:12.793Z,0
2017-06-15T03:32:15.162Z,0
2017-06-15T03:33:17.519Z,0
2017-06-15T03:35:27.601Z,0
2017-06-15T03:36:30.150Z,0
2017-06-15T03:37:32.534Z,0
2017-06-15T03:38:34.896Z,0
2017-06-15T03:39:39.660Z,0
2017-06-15T03:40:42.024Z,0
2017-06-15T03:41:45.576Z,0
2017-06-15T03:42:47.940Z,0
2017-06-15T03:43:50.302Z,0
2017-06-15T03:47:04.874Z,0
2017-06-15T03:48:07.230Z,0
2017-06-15T03:49:09.580Z,0
2017-06-15T03:50:11.938Z,0
2017-06-15T03:51:17.250Z,0
2017-06-15T03:52:19.843Z,0
2017-06-15T03:53:22.217Z,0
2017-06-15T03:54:24.580Z,0
2017-06-15T03:55:26.935Z,0
2017-06-15T03:58:41.904Z,0
2017-06-15T03:59:44.261Z,0
2017-06-15T04:00:46.615Z,0
2017-06-15T04:01:52.468Z,0
2017-06-15T04:02:54.820Z,0
2017-06-15T04:03:57.175Z,0
2017-06-15T04:04:59.763Z,0
2017-06-15T04:06:02.127Z,0
2017-06-15T04:07:08.250Z,0
2017-06-15T04:08:10.607Z,0
2017-06-15T04:09:12.967Z,0
2017-06-15T04:10:15.535Z,0
2017-06-15T04:11:17.890Z,0
2017-06-15T04:13:28.176Z,0
2017-06-15T04:14:30.534Z,0
2017-06-15T04:15:32.893Z,0
2017-06-15T04:16:35.273Z,0
2017-06-15T04:17:40.539Z,0
2017-06-15T04:18:42.920Z,0
2017-06-15T04:19:45.283Z,0
2017-06-15T04:20:47.673Z,0
2017-06-15T04:21:50.222Z,0
2017-06-15T04:22:55.893Z,0
2017-06-15T04:23:58.250Z,0
2017-06-15T04:25:00.608Z,0
2017-06-15T04:26:02.974Z,0
2017-06-15T04:27:05.350Z,0
2017-06-15T04:28:11.570Z,0
2017-06-15T04:29:13.939Z,0
2017-06-15T04:30:16.288Z,0
2017-06-15T04:31:18.642Z,0
2017-06-15T04:32:21.001Z,0
2017-06-15T04:33:26.612Z,0
2017-06-15T04:34:28.971Z,0
2017-06-15T04:35:31.336Z,0
2017-06-15T04:36:33.704Z,0
2017-06-15T04:37:36.054Z,0
2017-06-15T04:41:55.474Z,0
2017-06-15T04:42:57.835Z,0
2017-06-15T04:45:08.319Z,0
2017-06-15T04:46:10.673Z,0
2017-06-15T04:47:13.052Z,0
2017-06-15T04:48:15.417Z,0
2017-06-15T04:49:17.769Z,0
2017-06-15T04:51:27.709Z,0
2017-06-15T04:52:30.073Z,0
2017-06-15T04:53:32.450Z,0
2017-06-15T04:54:34.803Z,0
2017-06-15T04:56:44.902Z,0
2017-06-15T04:57:47.257Z,0
2017-06-15T04:58:49.618Z,0
2017-06-15T04:59:51.986Z,0
2017-06-15T05:00:56.940Z,0
2017-06-15T05:01:59.297Z,0
2017-06-15T05:03:01.687Z,0
2017-06-15T05:04:04.042Z,0
2017-06-15T05:05:06.393Z,0
2017-06-15T05:06:11.909Z,0
2017-06-15T05:07:14.284Z,0
2017-06-15T05:08:16.634Z,0
2017-06-15T05:09:18.995Z,0
2017-06-15T05:10:21.361Z,0
2017-06-15T05:11:27.116Z,0
2017-06-15T05:12:29.466Z,0
2017-06-15T05:13:31.824Z,0
2017-06-15T05:14:34.176Z,0
2017-06-15T05:15:36.531Z,0
2017-06-15T05:16:42.143Z,0
2017-06-15T05:17:44.499Z,0
2017-06-15T05:18:46.852Z,0
2017-06-15T05:19:49.206Z,0
2017-06-15T05:20:51.573Z,0
2017-06-15T05:21:56.836Z,0
2017-06-15T05:22:59.198Z,0
2017-06-15T05:24:01.562Z,0
2017-06-15T05:25:03.914Z,0
2017-06-15T05:26:06.260Z,0
2017-06-15T05:28:16.063Z,0
2017-06-15T05:29:18.414Z,0
2017-06-15T05:30:20.773Z,0
2017-06-15T05:31:23.145Z,0
2017-06-15T05:32:26.058Z,0
2017-06-15T05:33:28.419Z,0
2017-06-15T05:34:30.793Z,0
2017-06-15T05:35:33.147Z,0
2017-06-15T05:36:35.509Z,0
2017-06-15T05:37:38.412Z,0
2017-06-15T05:38:40.767Z,0
2017-06-15T05:39:43.132Z,0
2017-06-15T05:40:45.503Z,0
2017-06-15T05:41:47.856Z,0
2017-06-15T05:42:54.056Z,0
2017-06-15T05:43:56.422Z,0
2017-06-15T05:44:58.988Z,0
2017-06-15T05:46:01.371Z,0
2017-06-15T05:47:03.730Z,0
2017-06-15T05:48:06.797Z,0
2017-06-15T05:49:09.151Z,0
2017-06-15T05:50:12.708Z,0
2017-06-15T05:51:15.087Z,0
2017-06-15T05:52:17.428Z,0
2017-06-15T05:53:23.698Z,0
2017-06-15T05:54:26.075Z,0
2017-06-15T05:55:28.428Z,0
2017-06-15T05:56:30.781Z,0
2017-06-15T05:57:33.147Z,0
2017-06-15T05:59:42.892Z,0
2017-06-15T06:00:45.249Z,0
2017-06-15T06:01:47.607Z,0
2017-06-15T06:02:49.962Z,0
2017-06-15T06:06:04.948Z,0
2017-06-15T06:07:07.301Z,0
2017-06-15T06:08:09.658Z,0
2017-06-15T06:09:15.569Z,0
2017-06-15T06:10:17.931Z,0
2017-06-15T06:11:20.291Z,0
2017-06-15T06:12:22.667Z,0
2017-06-15T06:13:25.030Z,0
2017-06-15T06:14:30.191Z,0
2017-06-15T06:15:32.547Z,0
2017-06-15T06:16:34.900Z,0
2017-06-15T06:17:37.260Z,0
2017-06-15T06:18:39.616Z,0
2017-06-15T06:21:54.383Z,0
2017-06-15T06:22:56.751Z,0
2017-06-15T06:23:59.112Z,0
2017-06-15T06:25:04.919Z,0
2017-06-15T06:26:07.278Z,0
2017-06-15T06:27:09.655Z,0
2017-06-15T06:28:12.218Z,0
2017-06-15T06:29:14.564Z,0
2017-06-15T06:30:20.224Z,0
2017-06-15T06:31:22.784Z,0
2017-06-15T06:32:25.145Z,0
2017-06-15T06:33:28.693Z,0
2017-06-15T06:34:31.065Z,0
2017-06-15T06:35:37.588Z,0
2017-06-15T06:36:39.942Z,0
2017-06-15T06:37:42.298Z,0
2017-06-15T06:38:44.652Z,0
2017-06-15T06:39:47.016Z,0
2017-06-15T06:40:52.321Z,0
2017-06-15T06:41:54.690Z,0
2017-06-15T06:42:57.047Z,0
2017-06-15T06:43:59.408Z,0
2017-06-15T06:45:01.764Z,0
2017-06-15T06:46:07.522Z,0
2017-06-15T06:47:09.887Z,0
2017-06-15T06:48:12.244Z,0
2017-06-15T06:49:14.592Z,0
2017-06-15T06:50:16.948Z,0
2017-06-15T06:53:31.722Z,0
2017-06-15T06:54:34.081Z,0
2017-06-15T06:55:36.436Z,0
2017-06-15T06:56:42.351Z,0
2017-06-15T06:57:44.702Z,0
2017-06-15T06:58:47.048Z,0
2017-06-15T06:59:49.412Z,0
2017-06-15T07:00:51.760Z,0
2017-06-15T07:04:06.942Z,0
2017-06-15T07:05:09.292Z,0
2017-06-15T07:06:11.662Z,0
2017-06-15T07:07:17.745Z,0
2017-06-15T07:08:20.095Z,0
2017-06-15T07:09:22.460Z,0
2017-06-15T07:10:24.820Z,0
2017-06-15T07:11:27.164Z,0
2017-06-15T07:12:32.629Z,0
2017-06-15T07:13:34.990Z,0
2017-06-15T07:14:37.354Z,0
2017-06-15T07:15:39.718Z,0
2017-06-15T07:16:42.078Z,0
2017-06-15T07:19:56.901Z,0
2017-06-15T07:20:59.260Z,0
2017-06-15T07:22:01.621Z,0
2017-06-15T07:23:07.128Z,0
2017-06-15T07:24:09.693Z,0
2017-06-15T07:25:12.051Z,0
2017-06-15T07:26:14.402Z,0
2017-06-15T07:27:16.773Z,0
2017-06-15T07:30:31.447Z,0
2017-06-15T07:31:33.802Z,0
2017-06-15T07:32:36.156Z,0
2017-06-15T07:33:42.467Z,0
2017-06-15T07:34:44.823Z,0
2017-06-15T07:35:47.173Z,0
2017-06-15T07:36:49.536Z,0
2017-06-15T07:37:51.890Z,0
2017-06-15T07:38:57.101Z,0
2017-06-15T07:39:59.453Z,0
2017-06-15T07:41:01.823Z,0
2017-06-15T07:42:04.194Z,0
2017-06-15T07:43:06.547Z,0
2017-06-15T07:45:16.841Z,0
2017-06-15T07:46:19.195Z,0
2017-06-15T07:47:21.553Z,0
2017-06-15T07:48:23.914Z,0
2017-06-15T07:49:29.674Z,0
2017-06-15T07:50:32.027Z,0
2017-06-15T07:51:34.382Z,0
2017-06-15T07:52:36.732Z,0
2017-06-15T07:53:39.306Z,0
2017-06-15T07:54:44.766Z,0
2017-06-15T07:55:47.161Z,0
2017-06-15T07:56:49.511Z,0
2017-06-15T07:57:52.058Z,0
2017-06-15T07:58:54.627Z,0
2017-06-15T07:59:57.593Z,0
2017-06-15T08:00:59.977Z,0
2017-06-15T08:02:02.327Z,0
2017-06-15T08:03:04.879Z,0
2017-06-15T08:04:07.236Z,0
2017-06-15T08:05:12.792Z,0
2017-06-15T08:06:15.146Z,0
2017-06-15T08:07:17.501Z,0
2017-06-15T08:08:19.865Z,0
2017-06-15T08:09:22.207Z,0
2017-06-15T08:10:28.077Z,0
2017-06-15T08:11:30.428Z,0
2017-06-15T08:12:32.784Z,0
2017-06-15T08:13:35.143Z,0
2017-06-15T08:14:37.494Z,0
2017-06-15T08:16:47.829Z,0
2017-06-15T08:17:50.183Z,0
2017-06-15T08:18:52.744Z,0
2017-06-15T08:19:55.097Z,0
2017-06-15T08:21:00.808Z,0
2017-06-15T08:22:03.163Z,0
2017-06-15T08:23:05.523Z,0
2017-06-15T08:24:07.890Z,0
2017-06-15T08:25:10.444Z,0
2017-06-15T08:27:20.929Z,0
2017-06-15T08:29:06.485Z,0
2017-06-15T08:30:08.845Z,0
2017-06-15T08:31:11.200Z,0
2017-06-15T08:32:16.903Z,0
2017-06-15T08:33:19.269Z,0
2017-06-15T08:34:21.621Z,0
2017-06-15T08:35:23.986Z,0
2017-06-15T08:36:26.352Z,0
2017-06-15T08:37:31.811Z,0
2017-06-15T08:38:34.159Z,0
2017-06-15T08:39:36.505Z,0
2017-06-15T08:40:38.867Z,0
2017-06-15T08:41:41.219Z,0
2017-06-15T08:42:46.377Z,0
2017-06-15T08:43:48.726Z,0
2017-06-15T08:44:51.084Z,0
2017-06-15T08:45:53.445Z,0
2017-06-15T08:46:55.808Z,0
2017-06-15T08:48:02.167Z,0
2017-06-15T08:49:04.538Z,0
2017-06-15T08:50:06.896Z,0
2017-06-15T08:51:09.240Z,0
2017-06-15T08:52:11.595Z,0
2017-06-15T08:53:17.908Z,0
2017-06-15T08:54:20.264Z,0
2017-06-15T08:55:22.621Z,0
2017-06-15T08:56:24.971Z,0
2017-06-15T08:57:27.339Z,0
2017-06-15T08:59:36.728Z,0
2017-06-15T09:00:39.082Z,0
2017-06-15T09:01:41.448Z,0
2017-06-15T09:02:43.999Z,0
2017-06-15T09:03:49.301Z,0
2017-06-15T09:04:51.670Z,0
2017-06-15T09:05:54.022Z,0
2017-06-15T09:06:56.375Z,0
2017-06-15T09:07:58.734Z,0
2017-06-15T09:09:04.287Z,0
2017-06-15T09:10:06.650Z,0
2017-06-15T09:11:10.193Z,0
2017-06-15T09:12:12.543Z,0
2017-06-15T09:13:14.923Z,0
2017-06-15T09:14:20.339Z,0
2017-06-15T09:15:22.692Z,0
2017-06-15T09:16:25.040Z,0
2017-06-15T09:17:27.408Z,0
2017-06-15T09:18:29.764Z,0
2017-06-15T09:19:35.987Z,0
2017-06-15T09:20:38.345Z,0
2017-06-15T09:21:40.692Z,0
2017-06-15T09:22:43.050Z,0
2017-06-15T09:23:45.400Z,0
2017-06-15T09:24:51.660Z,0
2017-06-15T09:25:54.010Z,0
2017-06-15T09:26:56.370Z,0
2017-06-15T09:27:58.730Z,0
2017-06-15T09:29:01.276Z,0
2017-06-15T09:30:07.266Z,0
2017-06-15T09:31:09.623Z,0
2017-06-15T09:32:11.981Z,0
2017-06-15T09:33:14.337Z,0
2017-06-15T09:34:16.696Z,0
2017-06-15T09:35:22.809Z,0
2017-06-15T09:36:25.165Z,0
2017-06-15T09:37:27.520Z,0
2017-06-15T09:38:29.872Z,0
2017-06-15T09:39:32.220Z,0
2017-06-15T09:40:37.574Z,0
2017-06-15T09:41:39.931Z,0
2017-06-15T09:42:42.289Z,0
2017-06-15T09:43:44.844Z,0
2017-06-15T09:44:47.228Z,0
2017-06-15T09:45:52.786Z,0
2017-06-15T09:46:55.335Z,0
2017-06-15T09:47:57.695Z,0
2017-06-15T09:49:00.054Z,0
2017-06-15T09:50:02.407Z,0
2017-06-15T09:51:08.670Z,0
2017-06-15T09:52:11.025Z,0
2017-06-15T09:53:13.373Z,0
2017-06-15T09:54:15.921Z,0
2017-06-15T09:55:18.286Z,0
2017-06-15T09:57:28.016Z,0
2017-06-15T09:58:30.573Z,0
2017-06-15T09:59:32.933Z,0
2017-06-15T10:00:35.285Z,0
2017-06-15T10:02:45.676Z,0
2017-06-15T10:03:48.229Z,0
2017-06-15T10:04:50.581Z,0
2017-06-15T10:05:52.933Z,0
2017-06-15T10:06:58.843Z,0
2017-06-15T10:08:01.203Z,0
2017-06-15T10:09:03.554Z,0
2017-06-15T10:10:05.909Z,0
2017-06-15T10:11:08.252Z,0
2017-06-15T10:12:13.763Z,0
2017-06-15T10:13:16.111Z,0
2017-06-15T10:14:18.469Z,0
2017-06-15T10:15:20.827Z,0
2017-06-15T10:16:23.174Z,0
2017-06-15T10:17:28.987Z,0
2017-06-15T10:18:31.339Z,0
2017-06-15T10:19:33.702Z,0
2017-06-15T10:20:36.057Z,0
2017-06-15T10:21:38.408Z,0
2017-06-15T10:22:44.325Z,0
2017-06-15T10:23:46.687Z,0
2017-06-15T10:24:49.041Z,0
2017-06-15T10:25:51.393Z,0
2017-06-15T10:26:53.748Z,0
2017-06-15T10:27:59.260Z,0
2017-06-15T10:29:01.613Z,0
2017-06-15T10:30:04.160Z,0
2017-06-15T10:31:06.520Z,0
2017-06-15T10:32:08.884Z,0
2017-06-15T10:33:14.598Z,0
2017-06-15T10:34:16.947Z,0
2017-06-15T10:35:19.304Z,0
2017-06-15T10:36:21.663Z,0
2017-06-15T10:37:24.234Z,0
2017-06-15T10:38:29.448Z,0
2017-06-15T10:39:31.799Z,0
2017-06-15T10:40:34.146Z,0
2017-06-15T10:41:36.510Z,0
2017-06-15T10:42:38.872Z,0
2017-06-15T10:44:48.600Z,0
2017-06-15T10:45:51.167Z,0
2017-06-15T10:46:53.518Z,0
2017-06-15T10:47:55.874Z,0
2017-06-15T10:48:58.225Z,0
2017-06-15T10:51:05.607Z,0
2017-06-15T10:52:07.958Z,0
2017-06-15T10:53:10.310Z,0
2017-06-15T10:54:12.665Z,0
2017-06-15T10:55:15.573Z,0
2017-06-15T10:56:17.928Z,0
2017-06-15T10:57:20.288Z,0
2017-06-15T10:58:22.667Z,0
2017-06-15T10:59:24.997Z,0
2017-06-15T11:00:27.942Z,0
2017-06-15T11:01:30.300Z,0
2017-06-15T11:02:32.853Z,0
2017-06-15T11:03:35.214Z,0
2017-06-15T11:04:37.589Z,0
2017-06-15T11:05:40.644Z,0
2017-06-15T11:06:44.192Z,0
2017-06-15T11:07:46.549Z,0
2017-06-15T11:08:48.908Z,0
2017-06-15T11:09:51.265Z,0
2017-06-15T11:10:54.188Z,0
2017-06-15T11:11:56.547Z,0
2017-06-15T11:12:58.899Z,0
2017-06-15T11:14:01.260Z,0
2017-06-15T11:15:03.622Z,0
2017-06-15T11:16:06.762Z,0
2017-06-15T11:17:09.309Z,0
2017-06-15T11:18:11.667Z,0
2017-06-15T11:19:14.041Z,0
2017-06-15T11:20:16.395Z,0
2017-06-15T11:21:19.348Z,0
2017-06-15T11:22:21.698Z,0
2017-06-15T11:23:24.061Z,0
2017-06-15T11:24:26.407Z,0
2017-06-15T11:25:28.763Z,0
2017-06-15T11:26:31.664Z,0
2017-06-15T11:27:34.016Z,0
2017-06-15T11:28:36.367Z,0
2017-06-15T11:29:38.724Z,0
2017-06-15T11:30:41.081Z,0
2017-06-15T11:31:44.130Z,0
2017-06-15T11:32:46.718Z,0
2017-06-15T11:33:49.080Z,0
2017-06-15T11:34:51.447Z,0
2017-06-15T11:35:53.804Z,0
2017-06-15T11:36:56.868Z,0
2017-06-15T11:37:59.230Z,4
2017-06-15T11:39:01.587Z,4
2017-06-15T11:40:03.944Z,4
2017-06-15T11:41:06.308Z,4
2017-06-15T11:42:09.263Z,8
2017-06-15T11:43:11.620Z,12
2017-06-15T11:44:13.984Z,8
2017-06-15T11:45:16.340Z,20
2017-06-15T11:46:18.693Z,32
2017-06-15T11:47:24.051Z,36
2017-06-15T11:48:26.406Z,44
2017-06-15T11:49:28.756Z,72
2017-06-15T11:50:31.114Z,92
2017-06-15T11:51:33.473Z,108
2017-06-15T11:52:38.929Z,92
2017-06-15T11:53:41.281Z,100
2017-06-15T11:54:43.637Z,148
2017-06-15T11:55:45.997Z,200
2017-06-15T11:56:48.355Z,172
2017-06-15T11:57:53.266Z,256
2017-06-15T11:58:55.628Z,304
2017-06-15T11:59:57.986Z,308
2017-06-15T12:01:00.354Z,272
2017-06-15T12:02:02.720Z,376
2017-06-15T12:03:07.679Z,500
2017-06-15T12:04:10.042Z,552
2017-06-15T12:05:12.397Z,612
2017-06-15T12:06:14.756Z,660
2017-06-15T12:07:17.108Z,572
2017-06-15T12:08:20.165Z,756
2017-06-15T12:09:22.553Z,832
2017-06-15T12:10:24.894Z,768
2017-06-15T12:11:27.242Z,880
2017-06-15T12:12:29.595Z,980
2017-06-15T12:13:35.063Z,896
2017-06-15T12:14:37.421Z,1028
2017-06-15T12:15:39.780Z,1248
2017-06-15T12:16:42.138Z,1596
2017-06-15T12:17:44.501Z,1616
2017-06-15T12:19:54.845Z,1932
2017-06-15T12:20:57.206Z,1944
2017-06-15T12:21:59.561Z,1996
2017-06-15T12:23:01.931Z,2412
2017-06-15T12:24:07.539Z,2688
2017-06-15T12:25:09.900Z,3544
2017-06-15T12:26:12.255Z,3076
2017-06-15T12:27:14.644Z,3264
2017-06-15T12:28:17.023Z,3100
2017-06-15T12:29:22.237Z,3188
2017-06-15T12:30:24.594Z,3708
2017-06-15T12:31:26.957Z,5144
2017-06-15T12:32:29.324Z,5464
2017-06-15T12:33:31.678Z,4956
2017-06-15T12:34:34.594Z,4828
2017-06-15T12:35:36.965Z,4252
2017-06-15T12:36:39.329Z,6964
2017-06-15T12:37:41.710Z,5796
2017-06-15T12:38:44.061Z,5084
2017-06-15T12:39:47.128Z,7812
2017-06-15T12:40:49.490Z,9172
2017-06-15T12:41:51.846Z,9260
2017-06-15T12:42:54.211Z,9600
2017-06-15T12:43:56.565Z,6904
2017-06-15T12:44:59.473Z,6784
2017-06-15T12:46:01.830Z,6500
2017-06-15T12:47:04.197Z,5676
2017-06-15T12:48:06.550Z,5316
2017-06-15T12:49:08.900Z,4172
2017-06-15T12:50:11.862Z,4796
2017-06-15T12:51:14.213Z,5340
2017-06-15T12:52:16.581Z,6636
2017-06-15T12:53:18.973Z,7128
2017-06-15T12:54:21.532Z,6716
2017-06-15T12:55:24.504Z,6032
2017-06-15T12:56:26.855Z,6016
2017-06-15T12:57:30.410Z,7320
2017-06-15T12:58:32.781Z,8668
2017-06-15T12:59:35.141Z,7828
2017-06-15T13:00:38.050Z,6608
2017-06-15T13:01:40.413Z,6124
2017-06-15T13:02:42.770Z,7048
2017-06-15T13:03:45.138Z,6036
2017-06-15T13:04:47.500Z,5668
2017-06-15T13:05:50.607Z,7296
2017-06-15T13:06:52.965Z,6664
2017-06-15T13:07:55.323Z,7608
2017-06-15T13:08:57.684Z,7216
2017-06-15T13:10:00.041Z,9232
2017-06-15T13:11:03.314Z,8860
2017-06-15T13:12:05.683Z,8384
2017-06-15T13:13:08.038Z,8364
2017-06-15T13:14:10.398Z,11596
2017-06-15T13:15:12.772Z,12596
2017-06-15T13:16:17.479Z,11856
2017-06-15T13:17:19.866Z,10532
2017-06-15T13:18:22.229Z,11168
2017-06-15T13:19:24.594Z,9532
2017-06-15T13:20:28.153Z,6904
2017-06-15T13:21:32.839Z,4436
2017-06-15T13:22:35.199Z,5912
2017-06-15T13:23:37.565Z,8176
2017-06-15T13:24:39.937Z,9200
2017-06-15T13:25:42.297Z,11320
2017-06-15T13:26:45.313Z,9648
2017-06-15T13:27:47.665Z,11208
2017-06-15T13:28:50.030Z,10124
2017-06-15T13:29:52.393Z,10100
2017-06-15T13:30:54.757Z,13228
2017-06-15T13:31:59.576Z,14024
2017-06-15T13:33:01.935Z,9692
2017-06-15T13:34:04.298Z,7828
2017-06-15T13:35:06.659Z,8072
2017-06-15T13:36:09.017Z,9516
2017-06-15T13:37:12.035Z,10212
2017-06-15T13:38:14.393Z,10752
2017-06-15T13:39:16.759Z,9976
2017-06-15T13:40:19.126Z,8100
2017-06-15T13:41:21.485Z,6728
2017-06-15T13:42:26.702Z,8380
2017-06-15T13:43:29.055Z,11892
2017-06-15T13:44:31.416Z,12660
2017-06-15T13:45:33.776Z,17032
2017-06-15T13:46:36.137Z,17212
2017-06-15T13:48:44.191Z,17616
2017-06-15T13:49:46.554Z,19296
2017-06-15T13:50:48.927Z,17684
2017-06-15T13:51:51.492Z,19872
2017-06-15T13:52:53.860Z,20928
2017-06-15T13:53:57.297Z,12272
2017-06-15T13:54:59.660Z,11812
2017-06-15T13:56:02.038Z,14692
2017-06-15T13:57:04.391Z,16536
2017-06-15T13:58:06.752Z,13460
2017-06-15T13:59:09.715Z,22432
2017-06-15T14:00:12.073Z,15884
2017-06-15T14:01:14.437Z,11184
2017-06-15T14:02:16.801Z,12964
2017-06-15T14:03:19.162Z,15932
2017-06-15T14:04:22.118Z,17428
2017-06-15T14:05:24.487Z,16172
2017-06-15T14:06:27.058Z,13528
2017-06-15T14:07:29.418Z,14800
2017-06-15T14:08:31.796Z,18368
2017-06-15T14:10:41.093Z,19712
2017-06-15T14:11:43.470Z,29312
2017-06-15T14:12:45.854Z,51776
2017-06-15T14:13:48.193Z,15724
2017-06-15T14:14:51.166Z,14672
2017-06-15T14:15:59.693Z,20224
2017-06-15T14:17:02.089Z,32160
2017-06-15T14:18:04.577Z,60608
2017-06-15T14:19:07.590Z,28064
2017-06-15T14:21:17.438Z,36192
2017-06-15T14:22:23.628Z,20832
2017-06-15T14:23:26.050Z,21696
2017-06-15T14:24:28.403Z,19552
2017-06-15T14:29:52.827Z,19488
2017-06-15T14:31:38.395Z,50336
2017-06-15T14:32:40.768Z,62176
2017-06-15T14:33:43.126Z,67968
2017-06-15T14:35:50.887Z,18084
2017-06-15T14:36:53.256Z,74112
2017-06-15T14:37:55.627Z,12824
2017-06-15T14:38:58.901Z,19968
2017-06-15T14:40:05.081Z,22784
2017-06-15T14:43:19.683Z,52608
2017-06-15T14:44:23.897Z,31328
2017-06-15T14:45:26.255Z,25344
2017-06-15T14:46:28.622Z,23744
2017-06-15T14:47:30.997Z,66688
2017-06-15T14:48:35.857Z,52864
2017-06-15T14:49:38.225Z,59936
2017-06-15T14:50:40.598Z,75168
2017-06-15T14:51:42.967Z,22560
2017-06-15T14:52:45.539Z,64416
2017-06-15T14:53:49.815Z,25664
2017-06-15T14:54:52.177Z,71584
2017-06-15T14:55:54.543Z,69344
2017-06-15T14:56:57.122Z,77568
2017-06-15T14:57:59.486Z,27008
2017-06-15T14:59:07.498Z,48128
2017-06-15T15:00:09.857Z,86560
2017-06-15T15:01:12.232Z,89056
2017-06-15T15:02:14.598Z,78432
2017-06-15T15:03:16.980Z,66208
2017-06-15T15:07:36.847Z,75392
2017-06-15T15:08:39.216Z,27776
2017-06-15T15:09:44.086Z,17608
2017-06-15T15:10:46.451Z,18976
2017-06-15T15:11:49.056Z,72896
2017-06-15T15:12:51.431Z,12824
2017-06-15T15:13:53.799Z,52800
2017-06-15T15:15:00.102Z,37408
2017-06-15T15:16:02.457Z,39328
2017-06-15T15:17:04.739Z,26880
2017-06-15T15:18:07.220Z,61952
2017-06-15T15:19:10.077Z,9608
2017-06-15T15:21:18.863Z,16448
2017-06-15T15:22:21.229Z,71552
2017-06-15T15:23:23.599Z,75712
2017-06-15T15:24:25.966Z,83296
2017-06-15T15:25:30.937Z,33344
2017-06-15T15:26:33.318Z,78176
2017-06-15T15:27:35.682Z,77408
2017-06-15T15:28:38.131Z,77984
2017-06-15T15:29:43.291Z,26848
2017-06-15T15:30:48.483Z,94944
2017-06-15T15:31:50.933Z,15452
2017-06-15T15:32:53.247Z,80992
2017-06-15T15:33:55.613Z,89088
2017-06-15T15:34:58.217Z,81152
2017-06-15T15:36:03.545Z,79840
2017-06-15T15:37:05.912Z,79104
2017-06-15T15:38:08.275Z,78112
2017-06-15T15:39:10.645Z,83232
2017-06-15T15:40:13.022Z,68352
2017-06-15T15:41:17.594Z,78016
2017-06-15T15:42:19.964Z,72992
2017-06-15T15:43:22.337Z,26112
2017-06-15T15:44:24.826Z,26368
2017-06-15T15:45:27.096Z,42080
2017-06-15T15:47:37.245Z,75712
2017-06-15T15:48:39.624Z,82048
2017-06-15T15:49:41.974Z,94656
2017-06-15T15:50:44.352Z,88416
2017-06-15T15:51:46.714Z,83904
2017-06-15T16:33:49.341Z,92512
2017-06-15T16:34:51.744Z,92800
2017-06-15T16:35:54.099Z,97440
2017-06-15T16:36:56.475Z,97536
2017-06-15T16:37:58.837Z,96160
2017-06-15T16:39:01.806Z,94752
2017-06-15T16:40:04.188Z,93760
2017-06-15T16:41:06.601Z,96384
2017-06-15T16:42:08.938Z,97408
2017-06-15T16:43:11.310Z,98304
2017-06-15T16:44:14.281Z,98016
2017-06-15T16:45:16.662Z,102560
2017-06-15T16:46:19.034Z,101120